Time;durP1;ratioP1;P1;durP2;ratioP2;P2;SDS_P1;SDS_P2;PMS_P1;PMS_P2;Temp;Humidity;BMP_temperature;BMP_pressure;BME280_temperature;BME280_humidity;BME280_pressure;Samples;Min_cycle;Max_cycle;Signal;HPM_P1;HPM_P2
2021/04/17 00:02:25;;;;;;;19.48;15.93;;;4.10;99.40;;;;;;5073708;28;20207;-39
2021/04/17 00:04:52;;;;;;;19.20;15.85;;;4.10;99.50;;;;;;5073355;28;20302;-39
2021/04/17 00:07:19;;;;;;;18.95;15.10;;;4.10;99.50;;;;;;5073436;28;20290;-39
2021/04/17 00:09:47;;;;;;;23.50;16.35;;;4.10;99.50;;;;;;5073054;28;20242;-39
2021/04/17 00:12:17;;;;;;;20.75;17.30;;;4.10;99.60;;;;;;5072797;28;20290;-39
2021/04/17 00:14:47;;;;;;;18.52;15.93;;;4.10;99.90;;;;;;5073086;28;20211;-39
2021/04/17 00:17:16;;;;;;;20.20;17.15;;;4.00;99.80;;;;;;5073891;28;20298;-39
2021/04/17 00:19:44;;;;;;;19.35;17.25;;;4.00;99.80;;;;;;5073018;28;20261;-39
2021/04/17 00:22:12;;;;;;;20.52;17.45;;;3.90;99.90;;;;;;5073126;28;20250;-39
2021/04/17 00:24:39;;;;;;;21.80;17.23;;;3.90;99.90;;;;;;5072973;28;20291;-39
2021/04/17 00:27:07;;;;;;;20.85;16.73;;;3.80;99.90;;;;;;5072555;28;20285;-39
2021/04/17 00:29:36;;;;;;;23.23;17.55;;;3.80;99.90;;;;;;5073083;28;20211;-39
2021/04/17 00:32:05;;;;;;;22.08;17.88;;;3.70;99.90;;;;;;5072803;28;20508;-39
2021/04/17 00:34:33;;;;;;;23.67;18.48;;;3.70;99.90;;;;;;5073067;28;20584;-39
2021/04/17 00:37:00;;;;;;;21.20;17.58;;;3.60;99.90;;;;;;5072960;28;20227;-39
2021/04/17 00:39:27;;;;;;;25.00;20.02;;;3.60;99.90;;;;;;5072753;28;20235;-39
2021/04/17 00:41:54;;;;;;;23.55;18.45;;;3.60;99.90;;;;;;5072623;28;20265;-39
2021/04/17 00:44:22;;;;;;;23.35;18.90;;;3.60;99.90;;;;;;5072923;28;20227;-39
2021/04/17 00:46:49;;;;;;;25.08;19.77;;;3.60;99.90;;;;;;5072635;28;20306;-39
2021/04/17 00:49:16;;;;;;;23.60;18.58;;;3.60;99.90;;;;;;5072704;28;20626;-39
2021/04/17 00:51:44;;;;;;;25.17;20.17;;;3.60;99.90;;;;;;5072609;28;20239;-39
2021/04/17 00:54:11;;;;;;;28.65;21.48;;;3.60;99.90;;;;;;5072259;28;20301;-39
2021/04/17 00:56:38;;;;;;;26.50;20.42;;;3.50;99.90;;;;;;5072430;28;20231;-39
2021/04/17 00:59:05;;;;;;;25.00;20.02;;;3.50;99.90;;;;;;5072612;28;20553;-39
2021/04/17 01:01:33;;;;;;;27.27;21.77;;;3.60;99.90;;;;;;5072068;28;20298;-39
2021/04/17 01:04:07;;;;;;;22.35;18.63;;;3.60;99.90;;;;;;5072102;28;20273;-39
2021/04/17 01:06:39;;;;;;;25.00;19.83;;;3.50;99.90;;;;;;5072249;28;20662;-39
2021/04/17 01:09:11;;;;;;;21.85;17.92;;;3.60;99.90;;;;;;5072398;28;20211;-39
2021/04/17 01:11:42;;;;;;;22.80;17.75;;;3.60;99.90;;;;;;5072514;28;20211;-39
2021/04/17 01:14:10;;;;;;;24.23;19.20;;;3.60;99.90;;;;;;5072297;28;20305;-39
2021/04/17 01:16:39;;;;;;;21.23;18.17;;;3.60;99.90;;;;;;5072098;28;20231;-39
2021/04/17 01:19:12;;;;;;;23.30;18.30;;;3.70;99.90;;;;;;5071966;28;20203;-39
2021/04/17 01:21:41;;;;;;;19.38;17.15;;;3.70;99.90;;;;;;5072312;28;20294;-39
2021/04/17 01:24:19;;;;;;;22.60;18.17;;;3.70;99.90;;;;;;5071388;28;20238;-39
2021/04/17 01:26:47;;;;;;;21.67;17.25;;;3.70;99.90;;;;;;5072062;28;20434;-39
2021/04/17 01:29:14;;;;;;;21.02;16.38;;;3.70;99.90;;;;;;5072513;28;20294;-39
2021/04/17 01:31:42;;;;;;;23.52;18.52;;;3.70;99.90;;;;;;5071877;28;20345;-39
2021/04/17 01:34:10;;;;;;;23.00;17.92;;;3.70;99.90;;;;;;5072200;28;20214;-39
2021/04/17 01:36:38;;;;;;;21.17;17.38;;;3.70;99.90;;;;;;5071799;28;20759;-39
2021/04/17 01:39:08;;;;;;;22.67;17.15;;;3.70;99.90;;;;;;5071844;28;20285;-39
2021/04/17 01:41:38;;;;;;;20.55;17.80;;;3.60;99.90;;;;;;5071940;28;20211;-40
2021/04/17 01:44:10;;;;;;;21.52;17.52;;;3.70;99.90;;;;;;5071633;28;20615;-39
2021/04/17 01:46:42;;;;;;;20.95;17.30;;;3.70;99.90;;;;;;5071906;28;20290;-38
2021/04/17 01:49:13;;;;;;;21.48;17.48;;;3.70;99.90;;;;;;5072161;28;20235;-39
2021/04/17 01:51:42;;;;;;;21.13;18.27;;;3.70;99.90;;;;;;5071894;28;20257;-40
2021/04/17 01:54:23;;;;;;;21.52;18.27;;;3.70;99.90;;;;;;5071907;28;20294;-38
2021/04/17 01:56:52;;;;;;;22.35;17.48;;;3.70;99.90;;;;;;5071585;28;20317;-38
2021/04/17 01:59:22;;;;;;;24.67;19.05;;;3.60;99.90;;;;;;5071708;28;20314;-39
2021/04/17 02:01:49;;;;;;;23.50;18.20;;;3.50;99.90;;;;;;5071816;28;20249;-39
2021/04/17 02:04:16;;;;;;;21.20;16.35;;;3.50;99.90;;;;;;5071323;28;20207;-39
2021/04/17 02:06:43;;;;;;;22.25;17.92;;;3.60;99.90;;;;;;5071806;28;20203;-38
2021/04/17 02:09:11;;;;;;;22.77;18.00;;;3.60;99.90;;;;;;5071546;28;20677;-39
2021/04/17 02:11:38;;;;;;;24.02;18.35;;;3.60;99.90;;;;;;5071536;28;20674;-38
2021/04/17 02:14:05;;;;;;;20.95;17.52;;;3.50;99.90;;;;;;5071492;28;20273;-39
2021/04/17 02:16:36;;;;;;;20.80;17.83;;;3.40;99.90;;;;;;5071648;28;20704;-39
2021/04/17 02:19:08;;;;;;;21.73;17.40;;;3.40;99.90;;;;;;5071398;28;20382;-39
2021/04/17 02:21:37;;;;;;;23.48;18.13;;;3.30;99.90;;;;;;5071401;28;20239;-40
2021/04/17 02:24:06;;;;;;;22.30;17.85;;;3.30;99.90;;;;;;5071328;28;20741;-39
2021/04/17 02:26:34;;;;;;;23.85;17.33;;;3.30;99.90;;;;;;5071024;28;20322;-39
2021/04/17 02:29:02;;;;;;;23.75;19.17;;;3.20;99.90;;;;;;5071303;28;20215;-40
2021/04/17 02:31:29;;;;;;;23.63;18.08;;;3.20;99.90;;;;;;5071390;28;20238;-40
2021/04/17 02:33:58;;;;;;;26.98;19.33;;;3.10;99.90;;;;;;5071407;28;20302;-39
2021/04/17 02:36:25;;;;;;;22.45;18.55;;;3.10;99.90;;;;;;5073820;28;20339;-39
2021/04/17 02:38:52;;;;;;;24.23;18.10;;;3.10;99.90;;;;;;5075334;28;20231;-39
2021/04/17 02:41:20;;;;;;;24.00;18.83;;;3.20;99.90;;;;;;5075172;28;20217;-39
2021/04/17 02:43:47;;;;;;;27.88;21.13;;;3.20;99.90;;;;;;5075006;28;20235;-38
2021/04/17 02:46:14;;;;;;;21.77;17.63;;;3.20;99.90;;;;;;5075066;28;20207;-39
2021/04/17 02:48:41;;;;;;;22.23;17.58;;;3.20;99.90;;;;;;5074766;28;20250;-39
2021/04/17 02:51:10;;;;;;;20.75;17.08;;;3.20;99.90;;;;;;5074881;28;20210;-39
2021/04/17 02:53:37;;;;;;;26.15;18.42;;;3.20;99.90;;;;;;5075047;28;20277;-38
2021/04/17 02:56:05;;;;;;;20.17;18.05;;;3.20;99.90;;;;;;5074590;28;20776;-39
2021/04/17 02:58:32;;;;;;;23.20;18.55;;;3.20;99.90;;;;;;5075082;28;20298;-39
2021/04/17 03:00:59;;;;;;;22.25;18.75;;;3.20;99.90;;;;;;5074707;28;20204;-39
2021/04/17 03:03:27;;;;;;;21.48;17.17;;;3.20;99.90;;;;;;5074152;28;20276;-38
2021/04/17 03:05:54;;;;;;;19.92;16.42;;;3.20;99.90;;;;;;5074756;28;20302;-38
2021/04/17 03:08:22;;;;;;;22.17;16.10;;;3.20;99.90;;;;;;5074505;28;20265;-38
2021/04/17 03:10:49;;;;;;;21.13;16.85;;;3.30;99.90;;;;;;5074589;28;20222;-38
2021/04/17 03:13:16;;;;;;;21.55;16.35;;;3.30;99.90;;;;;;5074468;28;20682;-38
2021/04/17 03:15:43;;;;;;;23.27;17.20;;;3.30;99.90;;;;;;5074213;28;20314;-38
2021/04/17 03:18:12;;;;;;;21.17;17.38;;;3.30;99.90;;;;;;5073315;28;20203;-39
2021/04/17 03:20:39;;;;;;;21.67;16.60;;;3.40;99.90;;;;;;5072948;28;20208;-38
2021/04/17 03:23:06;;;;;;;22.00;18.58;;;3.40;99.90;;;;;;5072125;28;20219;-38
2021/04/17 03:25:34;;;;;;;22.60;16.45;;;3.40;99.90;;;;;;5072221;28;20199;-39
2021/04/17 03:28:01;;;;;;;22.33;17.05;;;3.50;99.90;;;;;;5072469;28;20215;-40
2021/04/17 03:30:29;;;;;;;19.92;17.25;;;3.60;99.90;;;;;;5072126;28;20204;-39
2021/04/17 03:32:56;;;;;;;20.92;15.98;;;3.70;99.90;;;;;;5071885;28;20604;-39
2021/04/17 03:35:24;;;;;;;20.92;17.50;;;3.80;99.90;;;;;;5072146;28;20273;-39
2021/04/17 03:37:51;;;;;;;20.88;16.60;;;4.00;99.90;;;;;;5072553;28;20294;-39
2021/04/17 03:40:18;;;;;;;19.88;16.30;;;4.00;99.90;;;;;;5072644;28;20302;-39
2021/04/17 03:42:46;;;;;;;21.45;16.25;;;4.00;99.90;;;;;;5074283;28;20302;-39
2021/04/17 03:45:14;;;;;;;20.23;16.17;;;3.90;99.90;;;;;;5072697;28;20306;-40
2021/04/17 03:47:41;;;;;;;19.25;15.52;;;3.90;99.90;;;;;;5072569;28;20207;-39
2021/04/17 03:50:09;;;;;;;23.42;17.10;;;3.80;99.90;;;;;;5073639;28;20214;-39
2021/04/17 03:52:37;;;;;;;21.23;16.77;;;3.80;99.90;;;;;;5073102;28;20211;-40
2021/04/17 03:55:06;;;;;;;20.52;15.15;;;3.70;99.90;;;;;;5073089;28;20215;-39
2021/04/17 03:57:34;;;;;;;22.80;15.02;;;3.70;99.90;;;;;;5073071;28;20266;-39
2021/04/17 04:00:02;;;;;;;20.70;16.85;;;3.70;99.90;;;;;;5073204;28;20207;-39
2021/04/17 04:02:29;;;;;;;17.48;15.13;;;3.70;99.90;;;;;;5072510;28;20210;-39
2021/04/17 04:04:56;;;;;;;19.65;16.40;;;3.70;99.90;;;;;;5072928;28;20581;-39
2021/04/17 04:07:23;;;;;;;20.60;16.08;;;3.70;99.90;;;;;;5072971;28;20235;-41
2021/04/17 04:09:50;;;;;;;20.88;16.50;;;3.70;99.90;;;;;;5072930;28;20290;-39
2021/04/17 04:12:17;;;;;;;18.48;16.35;;;3.60;99.90;;;;;;5072859;28;20215;-40
2021/04/17 04:14:44;;;;;;;19.73;16.58;;;3.60;99.90;;;;;;5073360;28;20571;-40
2021/04/17 04:17:12;;;;;;;17.25;14.95;;;3.60;99.90;;;;;;5073106;28;20281;-40
2021/04/17 04:19:39;;;;;;;18.13;15.02;;;3.60;99.90;;;;;;5072971;28;20219;-40
2021/04/17 04:22:06;;;;;;;18.10;14.85;;;3.60;99.90;;;;;;5072927;28;20211;-36
2021/04/17 04:24:33;;;;;;;20.85;16.73;;;3.70;99.90;;;;;;5072402;28;20289;-40
2021/04/17 04:27:00;;;;;;;18.83;16.45;;;3.70;99.90;;;;;;5072175;28;20285;-40
2021/04/17 04:29:27;;;;;;;17.40;14.18;;;3.70;99.90;;;;;;5072115;28;20207;-39
2021/04/17 04:31:54;;;;;;;20.42;17.33;;;3.70;99.90;;;;;;5072644;28;20298;-39
2021/04/17 04:34:22;;;;;;;19.70;16.58;;;3.70;99.90;;;;;;5072836;28;20293;-40
2021/04/17 04:36:49;;;;;;;25.48;18.70;;;3.70;99.90;;;;;;5072608;28;20707;-40
2021/04/17 04:39:16;;;;;;;21.52;16.80;;;3.80;99.90;;;;;;5072723;28;20688;-40
2021/04/17 04:41:43;;;;;;;20.20;15.93;;;4.00;99.90;;;;;;5072885;28;20307;-40
2021/04/17 04:44:10;;;;;;;22.83;17.25;;;4.20;99.90;;;;;;5072830;28;20207;-40
2021/04/17 04:46:37;;;;;;;21.23;17.25;;;4.40;99.90;;;;;;5072381;28;20296;-40
2021/04/17 04:49:05;;;;;;;21.73;17.48;;;4.40;99.90;;;;;;5072107;28;20238;-39
2021/04/17 04:51:33;;;;;;;24.20;18.30;;;4.40;99.90;;;;;;5072242;28;20290;-39
2021/04/17 04:54:00;;;;;;;23.77;18.17;;;4.30;99.90;;;;;;5072413;28;20285;-39
2021/04/17 04:56:27;;;;;;;23.83;19.17;;;4.30;99.90;;;;;;5072075;28;20669;-39
2021/04/17 04:58:54;;;;;;;23.73;17.90;;;4.40;99.90;;;;;;5072433;28;20281;-40
2021/04/17 05:01:21;;;;;;;22.92;18.55;;;4.50;99.90;;;;;;5072352;28;20762;-40
2021/04/17 05:03:48;;;;;;;24.63;18.98;;;4.50;99.90;;;;;;5072063;28;20231;-40
2021/04/17 05:06:15;;;;;;;23.42;18.60;;;4.50;99.90;;;;;;5072074;28;20257;-40
2021/04/17 05:08:43;;;;;;;22.98;18.45;;;4.40;99.90;;;;;;5072261;28;20218;-39
2021/04/17 05:11:11;;;;;;;24.60;18.55;;;4.30;99.90;;;;;;5072065;28;20695;-40
2021/04/17 05:13:37;;;;;;;23.38;18.95;;;4.30;99.90;;;;;;5071952;28;20307;-40
2021/04/17 05:16:05;;;;;;;23.13;18.77;;;4.30;99.90;;;;;;5071562;28;20314;-40
2021/04/17 05:18:35;;;;;;;26.60;19.80;;;4.40;99.90;;;;;;5072091;28;20237;-40
2021/04/17 05:21:02;;;;;;;25.25;19.10;;;4.40;99.90;;;;;;5071673;28;20222;-39
2021/04/17 05:23:29;;;;;;;24.50;19.90;;;4.40;99.90;;;;;;5071970;28;20209;-40
2021/04/17 05:25:57;;;;;;;25.45;21.02;;;4.50;99.90;;;;;;5071471;28;20824;-39
2021/04/17 05:28:24;;;;;;;25.98;20.83;;;4.50;99.90;;;;;;5071949;28;20230;-40
2021/04/17 05:30:51;;;;;;;24.55;20.40;;;4.50;99.90;;;;;;5071812;28;20680;-40
2021/04/17 05:33:18;;;;;;;24.05;19.63;;;4.50;99.90;;;;;;5071555;28;20246;-40
2021/04/17 05:35:45;;;;;;;26.63;20.10;;;4.60;99.90;;;;;;5072053;28;20234;-40
2021/04/17 05:38:12;;;;;;;28.70;19.17;;;4.70;99.90;;;;;;5072007;28;20235;-40
2021/04/17 05:40:39;;;;;;;26.83;21.27;;;4.70;99.90;;;;;;5071633;28;20517;-40
2021/04/17 05:43:07;;;;;;;27.42;21.33;;;4.80;99.90;;;;;;5071312;28;20653;-40
2021/04/17 05:45:34;;;;;;;24.25;18.65;;;4.80;99.90;;;;;;5071220;28;20235;-39
2021/04/17 05:48:01;;;;;;;24.98;19.80;;;4.80;99.90;;;;;;5071562;28;20243;-39
2021/04/17 05:50:28;;;;;;;24.23;20.48;;;4.80;99.90;;;;;;5071889;28;20230;-39
2021/04/17 05:52:55;;;;;;;26.10;20.60;;;4.90;99.90;;;;;;5071521;28;20646;-40
2021/04/17 05:55:22;;;;;;;25.92;20.85;;;4.80;99.90;;;;;;5071496;28;20697;-40
2021/04/17 05:57:49;;;;;;;24.92;20.67;;;4.90;99.90;;;;;;5071312;28;20754;-39
2021/04/17 06:00:18;;;;;;;28.25;21.20;;;5.00;99.90;;;;;;5071193;28;20661;-39
2021/04/17 06:02:46;;;;;;;24.77;20.15;;;5.10;99.90;;;;;;5071019;28;20215;-40
2021/04/17 06:05:14;;;;;;;24.05;19.15;;;5.30;99.90;;;;;;5071591;28;20257;-40
2021/04/17 06:07:41;;;;;;;26.95;22.05;;;5.40;99.90;;;;;;5071078;28;20246;-40
2021/04/17 06:10:09;;;;;;;25.38;20.33;;;5.40;99.90;;;;;;5071740;28;20616;-40
2021/04/17 06:12:36;;;;;;;23.90;20.05;;;5.20;99.90;;;;;;5075405;28;20273;-40
2021/04/17 06:15:05;;;;;;;25.45;21.23;;;5.10;99.90;;;;;;5075023;28;20273;-40
2021/04/17 06:17:33;;;;;;;25.90;21.30;;;5.00;99.90;;;;;;5075080;28;20318;-40
2021/04/17 06:20:00;;;;;;;28.85;22.55;;;4.90;99.90;;;;;;5075214;28;20579;-40
2021/04/17 06:22:27;;;;;;;27.67;21.20;;;4.90;99.90;;;;;;5074971;28;20246;-46
2021/04/17 06:24:55;;;;;;;27.13;22.25;;;4.90;99.90;;;;;;5075100;28;20239;-39
2021/04/17 06:27:22;;;;;;;26.02;21.27;;;4.80;99.90;;;;;;5074926;28;20288;-39
2021/04/17 06:29:49;;;;;;;31.67;27.63;;;4.80;99.90;;;;;;5074845;28;20207;-39
2021/04/17 06:32:16;;;;;;;31.85;26.55;;;4.80;99.90;;;;;;5074875;28;20743;-40
2021/04/17 06:34:44;;;;;;;27.90;22.55;;;4.80;99.90;;;;;;5074812;28;20213;-40
2021/04/17 06:37:13;;;;;;;28.90;21.38;;;4.90;99.90;;;;;;5074395;28;20267;-40
2021/04/17 06:39:40;;;;;;;27.17;20.77;;;4.90;99.90;;;;;;5074694;28;20243;-41
2021/04/17 06:42:12;;;;;;;27.73;22.05;;;5.00;99.90;;;;;;5074355;28;20658;-40
2021/04/17 06:44:42;;;;;;;25.58;20.38;;;5.10;99.90;;;;;;5074564;28;20273;-40
2021/04/17 06:47:10;;;;;;;26.85;22.00;;;5.10;99.90;;;;;;5074662;28;20295;-40
2021/04/17 06:49:39;;;;;;;28.00;23.30;;;5.10;99.90;;;;;;5074250;28;20238;-41
2021/04/17 06:52:09;;;;;;;26.52;21.38;;;5.10;99.90;;;;;;5074498;28;20207;-41
2021/04/17 06:54:38;;;;;;;28.30;21.20;;;5.20;99.90;;;;;;5074268;28;20219;-39
2021/04/17 06:57:06;;;;;;;29.25;21.77;;;5.30;99.90;;;;;;5073913;28;20227;-40
2021/04/17 06:59:33;;;;;;;25.15;20.48;;;5.40;99.90;;;;;;5074295;28;20207;-39
2021/04/17 07:02:00;;;;;;;30.15;22.83;;;5.50;99.90;;;;;;5074340;28;20294;-39
2021/04/17 07:04:27;;;;;;;29.13;22.75;;;5.50;99.90;;;;;;5074304;28;20206;-40
2021/04/17 07:06:55;;;;;;;30.60;23.70;;;5.50;99.90;;;;;;5074285;28;20239;-42
2021/04/17 07:09:23;;;;;;;28.50;22.95;;;5.60;99.90;;;;;;5074091;28;20266;-42
2021/04/17 07:11:50;;;;;;;28.48;23.10;;;5.60;99.90;;;;;;5074430;28;20261;-42
2021/04/17 07:14:18;;;;;;;27.48;23.00;;;5.70;99.90;;;;;;5074208;28;20257;-43
2021/04/17 07:16:56;;;;;;;28.38;23.40;;;5.80;99.90;;;;;;5074021;28;20635;-41
2021/04/17 07:19:24;;;;;;;28.63;21.27;;;6.10;99.90;;;;;;5072556;28;20687;-42
2021/04/17 07:21:52;;;;;;;28.65;23.83;;;6.20;99.90;;;;;;5071888;28;20308;-43
2021/04/17 07:24:28;;;;;;;29.10;23.08;;;6.20;99.90;;;;;;5074070;28;20214;-42
2021/04/17 07:26:55;;;;;;;31.63;23.67;;;6.30;99.90;;;;;;5073820;28;20325;-43
2021/04/17 07:29:22;;;;;;;27.52;22.38;;;6.40;99.90;;;;;;5074835;28;20281;-41
2021/04/17 07:31:52;;;;;;;29.83;21.77;;;6.60;99.90;;;;;;5073837;28;20239;-41
2021/04/17 07:34:21;;;;;;;26.25;20.83;;;6.70;99.90;;;;;;5073728;28;20683;-41
2021/04/17 07:36:52;;;;;;;29.92;23.25;;;6.90;99.90;;;;;;5073599;28;20650;-41
2021/04/17 07:39:48;;;;;;;26.98;22.42;;;7.00;99.90;;;;;;5073830;28;20305;-40
2021/04/17 07:42:15;;;;;;;26.08;21.90;;;7.10;99.90;;;;;;5050084;28;20298;-40
2021/04/17 07:44:44;;;;;;;26.55;21.38;;;7.20;99.90;;;;;;5073322;28;20649;-41
2021/04/17 07:47:30;;;;;;;26.60;21.52;;;7.30;99.90;;;;;;5073258;28;20617;-42
2021/04/17 07:50:05;;;;;;;26.42;22.00;;;7.50;99.90;;;;;;5073380;28;20239;-42
2021/04/17 07:52:32;;;;;;;27.10;22.92;;;7.70;99.90;;;;;;5073998;28;20272;-41
2021/04/17 07:55:05;;;;;;;25.45;21.88;;;8.00;99.90;;;;;;5073069;28;20217;-41
2021/04/17 07:57:33;;;;;;;25.10;21.48;;;8.40;99.60;;;;;;5073066;28;20289;-40
2021/04/17 08:00:03;;;;;;;26.77;21.80;;;8.60;99.10;;;;;;5073202;28;20208;-41
2021/04/17 08:02:32;;;;;;;25.02;22.23;;;8.70;98.90;;;;;;5073309;28;20294;-40
2021/04/17 08:04:59;;;;;;;26.92;20.40;;;8.80;98.80;;;;;;5073215;28;20214;-40
2021/04/17 08:07:27;;;;;;;24.55;21.17;;;8.80;98.90;;;;;;5072776;28;20684;-40
2021/04/17 08:09:57;;;;;;;26.25;20.42;;;8.80;98.90;;;;;;5072852;28;20721;-40
2021/04/17 08:12:25;;;;;;;24.65;20.55;;;8.80;98.90;;;;;;5072659;28;20215;-41
2021/04/17 08:14:52;;;;;;;24.70;22.15;;;8.70;98.80;;;;;;5072499;28;20261;-40
2021/04/17 08:17:22;;;;;;;26.45;22.20;;;8.80;98.80;;;;;;5072710;28;20841;-41
2021/04/17 08:19:49;;;;;;;24.77;21.00;;;9.00;98.60;;;;;;5072476;28;20211;-40
2021/04/17 08:22:16;;;;;;;29.65;23.45;;;9.20;98.30;;;;;;5072328;28;20264;-40
2021/04/17 08:24:47;;;;;;;23.55;20.50;;;9.30;98.10;;;;;;5072546;28;20257;-40
2021/04/17 08:27:14;;;;;;;26.10;20.70;;;9.40;97.80;;;;;;5072653;28;20717;-40
2021/04/17 08:29:44;;;;;;;21.85;19.23;;;9.40;97.50;;;;;;5072675;28;20246;-41
2021/04/17 08:32:29;;;;;;;24.48;21.88;;;9.30;97.60;;;;;;5072611;28;20277;-40
2021/04/17 08:35:10;;;;;;;23.27;20.70;;;9.10;97.80;;;;;;5072504;28;20219;-40
2021/04/17 08:38:01;;;;;;;22.90;19.63;;;8.90;98.20;;;;;;5072458;28;20325;-40
2021/04/17 08:40:47;;;;;;;23.02;20.52;;;9.00;98.30;;;;;;5072140;28;20215;-41
2021/04/17 08:43:34;;;;;;;24.17;21.50;;;9.10;98.20;;;;;;5072438;28;20215;-40
2021/04/17 08:46:10;;;;;;;21.90;19.63;;;9.20;98.10;;;;;;5072224;28;20260;-41
2021/04/17 08:48:46;;;;;;;28.83;23.88;;;9.20;98.10;;;;;;5072455;28;20324;-42
2021/04/17 08:51:36;;;;;;;20.67;18.13;;;9.30;98.00;;;;;;5072159;28;20257;-41
2021/04/17 08:54:18;;;;;;;22.00;16.95;;;9.50;97.70;;;;;;5072289;28;20207;-40
2021/04/17 08:57:01;;;;;;;18.15;15.98;;;9.90;97.10;;;;;;5071996;28;20639;-41
2021/04/17 08:59:31;;;;;;;16.60;14.95;;;10.00;96.40;;;;;;5070514;28;20208;-40
2021/04/17 09:02:04;;;;;;;17.60;14.75;;;10.10;96.00;;;;;;5072126;28;20230;-42
2021/04/17 09:04:33;;;;;;;15.43;12.48;;;10.30;95.50;;;;;;5071979;28;20253;-41
2021/04/17 09:07:01;;;;;;;15.35;13.00;;;10.30;95.10;;;;;;5072124;28;20218;-41
2021/04/17 09:09:32;;;;;;;17.50;15.70;;;10.30;94.80;;;;;;5071873;28;20444;-42
2021/04/17 09:12:17;;;;;;;19.90;17.88;;;10.50;94.40;;;;;;5071705;28;20207;-42
2021/04/17 09:15:04;;;;;;;15.68;14.10;;;10.50;94.40;;;;;;5071944;28;20754;-41
2021/04/17 09:17:47;;;;;;;11.05;9.95;;;10.30;93.60;;;;;;5072021;28;20322;-41
2021/04/17 09:20:37;;;;;;;9.20;8.30;;;10.00;93.70;;;;;;5071803;28;20687;-40
2021/04/17 09:23:04;;;;;;;10.05;9.02;;;9.70;93.70;;;;;;5072032;28;20208;-40
2021/04/17 09:25:45;;;;;;;8.88;7.90;;;9.50;94.00;;;;;;5071551;28;20729;-40
2021/04/17 09:28:13;;;;;;;9.60;7.97;;;9.40;93.90;;;;;;5071743;28;20561;-41
2021/04/17 09:30:40;;;;;;;9.82;8.80;;;9.50;94.10;;;;;;5071639;28;20208;-40
2021/04/17 09:33:08;;;;;;;13.65;8.80;;;9.60;94.10;;;;;;5071435;28;20211;-40
2021/04/17 09:35:39;;;;;;;10.73;8.65;;;9.80;93.60;;;;;;5071602;28;20210;-40
2021/04/17 09:38:15;;;;;;;9.88;8.07;;;9.80;93.10;;;;;;5071634;28;20274;-41
2021/04/17 09:40:46;;;;;;;10.40;9.40;;;9.80;92.70;;;;;;5071214;28;20207;-41
2021/04/17 09:43:22;;;;;;;10.60;9.25;;;9.90;92.30;;;;;;5071407;28;20666;-40
2021/04/17 09:45:50;;;;;;;11.98;10.77;;;10.10;92.00;;;;;;5070794;28;20211;-40
2021/04/17 09:48:21;;;;;;;12.70;10.55;;;10.20;91.80;;;;;;5071311;28;20608;-41
2021/04/17 09:50:49;;;;;;;12.30;10.48;;;10.50;91.40;;;;;;5071541;28;20207;-41
2021/04/17 09:53:18;;;;;;;13.10;11.88;;;10.60;91.20;;;;;;5071466;28;20266;-40
2021/04/17 09:55:56;;;;;;;12.85;11.60;;;10.70;90.90;;;;;;5071258;28;20580;-40
2021/04/17 09:58:34;;;;;;;15.18;13.30;;;10.80;90.70;;;;;;5071603;28;20323;-40
2021/04/17 10:01:16;;;;;;;15.27;13.60;;;10.80;90.30;;;;;;5071489;28;20237;-40
2021/04/17 10:03:50;;;;;;;17.13;12.73;;;10.80;90.10;;;;;;5071066;28;20214;-40
2021/04/17 10:06:28;;;;;;;14.27;12.90;;;10.70;90.30;;;;;;5070939;28;20218;-40
2021/04/17 10:08:57;;;;;;;14.07;12.60;;;10.60;90.20;;;;;;5071287;28;20296;-41
2021/04/17 10:11:25;;;;;;;12.95;11.70;;;10.50;90.10;;;;;;5071109;28;20685;-41
2021/04/17 10:13:53;;;;;;;14.20;12.82;;;10.50;90.00;;;;;;5071237;28;20633;-42
2021/04/17 10:16:31;;;;;;;16.85;11.90;;;10.50;90.10;;;;;;5071122;28;20203;-41
2021/04/17 10:19:01;;;;;;;14.50;13.02;;;10.40;89.30;;;;;;5071389;28;20251;-41
2021/04/17 10:21:31;;;;;;;13.77;12.15;;;10.30;89.50;;;;;;5071066;28;20215;-41
2021/04/17 10:24:18;;;;;;;13.27;11.90;;;10.40;89.50;;;;;;5070574;28;20265;-41
2021/04/17 10:26:55;;;;;;;12.23;11.10;;;10.50;87.80;;;;;;5070665;28;20318;-41
2021/04/17 10:29:34;;;;;;;15.02;11.95;;;10.50;88.60;;;;;;5070497;28;20559;-40
2021/04/17 10:32:02;;;;;;;14.15;12.65;;;10.70;88.00;;;;;;5070677;28;20258;-41
2021/04/17 10:34:30;;;;;;;15.35;13.32;;;10.80;87.60;;;;;;5070651;28;20207;-41
2021/04/17 10:37:00;;;;;;;14.15;12.23;;;10.90;87.30;;;;;;5070699;28;20246;-41
2021/04/17 10:39:27;;;;;;;14.02;11.60;;;11.10;87.10;;;;;;5070172;28;20254;-41
2021/04/17 10:41:59;;;;;;;13.55;12.15;;;11.20;86.30;;;;;;5070653;28;20215;-40
2021/04/17 10:44:26;;;;;;;14.63;13.13;;;11.20;86.30;;;;;;5070729;28;20235;-40
2021/04/17 10:46:53;;;;;;;12.52;11.38;;;11.30;86.30;;;;;;5070525;28;20712;-41
2021/04/17 10:49:35;;;;;;;15.52;12.02;;;11.40;86.20;;;;;;5070707;28;20204;-40
2021/04/17 10:52:07;;;;;;;12.45;10.98;;;11.40;85.30;;;;;;5070336;28;20212;-40
2021/04/17 10:54:49;;;;;;;18.40;16.60;;;11.30;85.10;;;;;;5070386;28;20215;-40
2021/04/17 10:57:16;;;;;;;12.98;11.77;;;11.20;85.20;;;;;;5072212;28;20788;-41
2021/04/17 10:59:54;;;;;;;14.77;13.27;;;11.20;85.40;;;;;;5073792;28;20777;-41
2021/04/17 11:02:26;;;;;;;13.25;11.95;;;11.10;85.00;;;;;;5073793;28;20202;-41
2021/04/17 11:04:55;;;;;;;12.73;11.45;;;11.00;85.30;;;;;;5073579;28;20212;-40
2021/04/17 11:07:29;;;;;;;12.07;10.88;;;10.90;85.20;;;;;;5073907;28;20204;-40
2021/04/17 11:09:56;;;;;;;13.27;11.88;;;10.80;84.50;;;;;;5073805;28;20251;-40
2021/04/17 11:12:26;;;;;;;12.90;11.57;;;10.60;85.60;;;;;;5073576;28;20258;-41
2021/04/17 11:15:14;;;;;;;14.57;11.93;;;10.60;85.40;;;;;;5073504;28;20290;-41
2021/04/17 11:17:42;;;;;;;14.05;12.43;;;10.50;84.80;;;;;;5073788;28;20258;-40
2021/04/17 11:20:19;;;;;;;13.15;11.90;;;10.40;85.00;;;;;;5073718;28;20223;-41
2021/04/17 11:22:47;;;;;;;14.32;12.23;;;10.20;85.40;;;;;;5073858;28;20473;-41
2021/04/17 11:25:14;;;;;;;12.38;10.93;;;10.10;86.00;;;;;;5073895;28;20265;-43
2021/04/17 11:27:41;;;;;;;12.48;11.18;;;10.10;85.70;;;;;;5073538;28;20323;-42
2021/04/17 11:30:10;;;;;;;13.20;11.55;;;9.90;85.90;;;;;;5073946;28;20636;-43
2021/04/17 11:32:39;;;;;;;13.15;11.75;;;9.80;86.50;;;;;;5073897;28;20246;-44
2021/04/17 11:35:11;;;;;;;12.60;11.27;;;9.80;86.50;;;;;;5073696;28;20207;-43
2021/04/17 11:37:39;;;;;;;13.27;10.65;;;9.80;86.30;;;;;;5073707;28;20227;-42
2021/04/17 11:40:08;;;;;;;13.20;11.80;;;9.90;85.90;;;;;;5073224;28;20211;-42
2021/04/17 11:42:35;;;;;;;12.20;11.00;;;9.90;85.60;;;;;;5073608;28;20604;-43
2021/04/17 11:45:03;;;;;;;12.38;11.18;;;9.90;86.10;;;;;;5073827;28;20207;-43
2021/04/17 11:47:30;;;;;;;12.57;11.38;;;9.90;85.70;;;;;;5073538;28;20291;-43
2021/04/17 11:49:57;;;;;;;16.33;12.98;;;10.10;85.30;;;;;;5073431;28;20235;-43
2021/04/17 11:52:24;;;;;;;12.85;11.55;;;10.10;85.20;;;;;;5073319;28;20208;-43
2021/04/17 11:54:53;;;;;;;11.70;10.63;;;10.30;84.80;;;;;;5073471;28;20298;-43
2021/04/17 11:57:19;;;;;;;12.15;11.00;;;10.50;84.20;;;;;;5073366;28;20231;-42
2021/04/17 11:59:46;;;;;;;11.55;10.35;;;10.50;84.00;;;;;;5073274;28;20686;-45
2021/04/17 12:02:13;;;;;;;15.80;12.25;;;10.50;84.00;;;;;;5073452;28;20298;-42
2021/04/17 12:04:40;;;;;;;12.63;11.40;;;10.50;83.70;;;;;;5073183;28;20208;-41
2021/04/17 12:07:07;;;;;;;12.80;11.50;;;10.60;83.50;;;;;;5073001;28;20234;-41
2021/04/17 12:09:34;;;;;;;12.35;11.13;;;10.60;83.30;;;;;;5072392;28;20310;-41
2021/04/17 12:12:02;;;;;;;12.90;10.80;;;10.80;83.00;;;;;;5072870;28;20208;-41
2021/04/17 12:14:32;;;;;;;12.35;11.20;;;10.90;82.40;;;;;;5073121;28;20284;-41
2021/04/17 12:16:59;;;;;;;11.73;10.50;;;10.90;82.10;;;;;;5072805;28;20219;-40
2021/04/17 12:19:26;;;;;;;11.80;10.60;;;11.00;81.80;;;;;;5072760;28;20239;-40
2021/04/17 12:21:53;;;;;;;11.60;10.40;;;11.00;81.20;;;;;;5072608;28;20247;-40
2021/04/17 12:24:21;;;;;;;11.93;10.73;;;11.10;80.70;;;;;;5072493;28;20211;-41
2021/04/17 12:26:48;;;;;;;11.57;10.35;;;11.10;80.30;;;;;;5072534;28;20327;-41
2021/04/17 12:29:15;;;;;;;12.45;11.13;;;11.20;80.30;;;;;;5072490;28;20211;-40
2021/04/17 12:31:43;;;;;;;14.40;11.23;;;11.20;80.10;;;;;;5072493;28;20208;-40
2021/04/17 12:34:10;;;;;;;12.25;11.05;;;11.30;80.10;;;;;;5072332;28;20286;-40
2021/04/17 12:36:37;;;;;;;10.85;9.80;;;11.40;79.70;;;;;;5072594;28;20294;-42
2021/04/17 12:39:05;;;;;;;11.68;10.57;;;11.50;79.30;;;;;;5072351;28;20639;-40
2021/04/17 12:41:33;;;;;;;14.02;10.93;;;11.60;78.90;;;;;;5072233;28;20643;-40
2021/04/17 12:44:00;;;;;;;11.75;10.65;;;11.50;78.70;;;;;;5072377;28;20223;-40
2021/04/17 12:46:28;;;;;;;12.32;10.73;;;11.50;78.80;;;;;;5072161;28;20235;-40
2021/04/17 12:48:55;;;;;;;12.27;11.07;;;11.50;78.80;;;;;;5072203;28;20204;-40